createdAt,value
2018-09-03T00:01:26.503Z,29.37
2018-09-03T00:03:54.963Z,28.00
2018-09-03T00:06:23.503Z,27.30
2018-09-03T00:08:51.941Z,27.20
2018-09-03T00:11:20.467Z,27.97
2018-09-03T00:13:48.932Z,28.10
2018-09-03T00:16:17.515Z,28.30
2018-09-03T00:18:45.998Z,28.90
2018-09-03T00:21:14.562Z,28.30
2018-09-03T00:23:43.031Z,27.50
2018-09-03T00:26:11.506Z,27.53
2018-09-03T00:28:39.955Z,29.10
2018-09-03T00:31:13.772Z,28.47
2018-09-03T00:33:47.436Z,28.77
2018-09-03T00:36:21.149Z,29.00
2018-09-03T00:38:55.066Z,30.20
2018-09-03T00:41:28.898Z,28.47
2018-09-03T00:44:02.756Z,28.97
2018-09-03T00:46:36.576Z,30.33
2018-09-03T00:49:05.159Z,28.90
2018-09-03T00:51:33.651Z,28.43
2018-09-03T00:54:02.135Z,31.33
2018-09-03T00:56:30.588Z,29.23
2018-09-03T00:58:59.116Z,34.93
2018-09-03T01:01:27.571Z,30.40
2018-09-03T01:03:56.030Z,32.57
2018-09-03T01:06:24.504Z,32.57
2018-09-03T01:08:52.968Z,30.27
2018-09-03T01:11:24.593Z,29.80
2018-09-03T01:13:53.722Z,31.20
2018-09-03T01:16:22.196Z,34.83
2018-09-03T01:18:54.786Z,33.73
2018-09-03T01:21:24.442Z,31.53
2018-09-03T01:23:53.194Z,32.80
2018-09-03T01:26:21.736Z,33.00
2018-09-03T01:28:50.211Z,29.43
2018-09-03T01:31:19.589Z,29.80
2018-09-03T01:33:50.650Z,31.53
2018-09-03T01:36:19.686Z,29.40
2018-09-03T01:38:48.328Z,29.93
2018-09-03T01:41:17.755Z,28.67
2018-09-03T01:43:46.735Z,30.43
2018-09-03T01:46:15.215Z,29.97
2018-09-03T01:48:43.923Z,31.93
2018-09-03T01:51:12.416Z,32.00
2018-09-03T01:53:40.936Z,31.70
2018-09-03T01:56:09.436Z,31.27
2018-09-03T01:58:37.973Z,32.43
2018-09-03T02:01:06.431Z,31.13
2018-09-03T02:03:34.894Z,30.40
2018-09-03T02:06:03.364Z,29.47
2018-09-03T02:08:32.369Z,30.50
2018-09-03T02:11:00.828Z,31.67
2018-09-03T02:13:30.251Z,30.87
2018-09-03T02:15:58.712Z,29.10
2018-09-03T02:18:27.243Z,32.87
2018-09-03T02:20:56.089Z,33.47
2018-09-03T02:23:24.544Z,34.87
2018-09-03T02:25:53.021Z,31.00
2018-09-03T02:28:21.449Z,32.60
2018-09-03T02:30:49.915Z,32.57
2018-09-03T02:33:18.356Z,30.03
2018-09-03T02:35:46.832Z,34.20
2018-09-03T02:38:15.311Z,34.63
2018-09-03T02:40:43.836Z,33.40
2018-09-03T02:43:12.293Z,34.30
2018-09-03T02:45:40.760Z,34.13
2018-09-03T02:48:09.232Z,34.43
2018-09-03T02:50:37.914Z,32.13
2018-09-03T02:53:06.484Z,34.30
2018-09-03T02:55:34.955Z,35.13
2018-09-03T02:58:03.427Z,34.93
2018-09-03T03:00:31.951Z,33.00
2018-09-03T03:03:00.438Z,31.30
2018-09-03T03:05:29.730Z,32.90
2018-09-03T03:07:58.406Z,33.50
2018-09-03T03:10:26.885Z,29.93
2018-09-03T03:12:55.339Z,32.73
2018-09-03T03:15:23.847Z,33.27
2018-09-03T03:17:52.336Z,30.10
2018-09-03T03:20:20.797Z,31.93
2018-09-03T03:22:49.253Z,30.93
2018-09-03T03:25:17.709Z,32.63
2018-09-03T03:27:46.185Z,33.27
2018-09-03T03:30:14.677Z,33.90
2018-09-03T03:32:43.139Z,31.93
2018-09-03T03:35:12.226Z,31.20
2018-09-03T03:37:44.907Z,31.50
2018-09-03T03:40:13.760Z,33.87
2018-09-03T03:42:42.606Z,29.53
2018-09-03T03:45:11.110Z,29.40
2018-09-03T03:47:39.974Z,26.73
2018-09-03T03:50:08.964Z,26.63
2018-09-03T03:52:37.605Z,28.30
2018-09-03T03:55:06.667Z,25.50
2018-09-03T03:57:35.345Z,26.93
2018-09-03T04:00:03.898Z,27.13
2018-09-03T04:02:32.364Z,26.57
2018-09-03T04:05:00.806Z,27.40
2018-09-03T04:07:29.288Z,25.03
2018-09-03T04:09:57.842Z,24.30
2018-09-03T04:12:26.267Z,26.60
2018-09-03T04:14:54.733Z,26.00
2018-09-03T04:17:23.255Z,24.93
2018-09-03T04:20:02.723Z,25.60
2018-09-03T04:22:32.243Z,22.57
2018-09-03T04:25:01.118Z,22.30
2018-09-03T04:27:29.607Z,23.70
2018-09-03T04:29:58.095Z,22.03
2018-09-03T04:32:26.561Z,23.40
2018-09-03T04:34:55.098Z,22.77
2018-09-03T04:37:23.540Z,22.20
2018-09-03T04:39:51.988Z,22.40
2018-09-03T04:42:20.452Z,22.40
2018-09-03T04:44:48.907Z,22.50
2018-09-03T04:47:17.345Z,21.27
2018-09-03T04:49:45.834Z,23.00
2018-09-03T04:52:14.308Z,21.93
2018-09-03T04:54:42.959Z,20.63
2018-09-03T04:57:11.327Z,23.23
2018-09-03T04:59:39.791Z,21.50
2018-09-03T05:02:08.271Z,21.93
2018-09-03T05:04:36.714Z,20.17
2018-09-03T05:07:05.349Z,20.20
2018-09-03T05:09:33.863Z,21.10
2018-09-03T05:12:02.343Z,20.00
2018-09-03T05:14:30.871Z,21.30
2018-09-03T05:16:59.323Z,19.20
2018-09-03T05:19:27.787Z,19.20
2018-09-03T05:21:56.260Z,20.37
2018-09-03T05:24:24.705Z,19.00
2018-09-03T05:26:53.250Z,18.57
2018-09-03T05:29:21.836Z,20.97
2018-09-03T05:31:50.281Z,20.10
2018-09-03T05:34:18.783Z,18.43
2018-09-03T05:36:47.235Z,19.30
2018-09-03T05:39:15.685Z,20.20
2018-09-03T05:41:44.174Z,21.47
2018-09-03T05:44:12.639Z,21.37
2018-09-03T05:46:41.123Z,20.63
2018-09-03T05:49:09.732Z,18.83
2018-09-03T05:51:38.223Z,19.43
2018-09-03T05:54:06.723Z,19.23
2018-09-03T05:56:35.184Z,17.80
2018-09-03T05:59:03.975Z,17.63
2018-09-03T06:01:32.432Z,17.40
2018-09-03T06:04:01.028Z,16.57
2018-09-03T06:06:29.576Z,18.27
2018-09-03T06:08:58.063Z,15.77
2018-09-03T06:11:26.481Z,16.77
2018-09-03T06:13:54.962Z,17.10
2018-09-03T06:16:23.699Z,16.10
2018-09-03T06:18:52.196Z,16.80
2018-09-03T06:21:20.632Z,15.60
2018-09-03T06:23:49.118Z,15.60
2018-09-03T06:26:17.569Z,15.00
2018-09-03T06:28:46.054Z,14.57
2018-09-03T06:31:14.652Z,14.17
2018-09-03T06:33:43.244Z,13.73
2018-09-03T06:36:11.676Z,12.90
2018-09-03T06:38:40.264Z,14.77
2018-09-03T06:41:08.730Z,15.60
2018-09-03T06:43:37.231Z,14.40
2018-09-03T06:46:05.963Z,14.10
2018-09-03T06:48:34.439Z,14.60
2018-09-03T06:51:03.026Z,13.33
2018-09-03T06:53:31.515Z,14.43
2018-09-03T06:55:59.991Z,14.20
2018-09-03T06:58:28.437Z,14.33
2018-09-03T07:00:56.916Z,15.20
2018-09-03T07:03:25.359Z,15.33
2018-09-03T07:05:53.910Z,17.10
2018-09-03T07:08:22.396Z,16.37
2018-09-03T07:10:50.872Z,15.07
2018-09-03T07:13:19.365Z,15.50
2018-09-03T07:15:47.896Z,13.93
2018-09-03T07:18:16.388Z,12.93
2018-09-03T07:20:44.839Z,12.93
2018-09-03T07:23:13.314Z,12.20
2018-09-03T07:25:41.783Z,12.40
2018-09-03T07:28:10.290Z,11.23
2018-09-03T07:30:38.755Z,12.37
2018-09-03T07:33:07.339Z,11.97
2018-09-03T07:35:35.872Z,11.33
2018-09-03T07:38:04.340Z,10.57
2018-09-03T07:40:32.776Z,10.57
2018-09-03T07:43:01.299Z,10.33
2018-09-03T07:45:29.753Z,10.57
2018-09-03T07:47:58.235Z,10.60
2018-09-03T07:50:26.722Z,11.60
2018-09-03T07:52:55.167Z,13.13
2018-09-03T07:55:23.655Z,12.17
2018-09-03T07:57:52.098Z,13.87
2018-09-03T08:00:20.587Z,13.13
2018-09-03T08:02:49.038Z,12.70
2018-09-03T08:05:17.508Z,14.00
2018-09-03T08:07:45.965Z,13.30
2018-09-03T08:10:14.449Z,12.40
2018-09-03T08:12:42.902Z,12.50
2018-09-03T08:15:11.365Z,11.90
2018-09-03T08:17:39.917Z,12.30
2018-09-03T08:20:08.483Z,12.17
2018-09-03T08:22:36.920Z,10.73
2018-09-03T08:25:05.538Z,11.67
2018-09-03T08:27:34.048Z,12.80
2018-09-03T08:30:02.511Z,12.47
2018-09-03T08:32:31.051Z,11.60
2018-09-03T08:34:59.626Z,11.67
2018-09-03T08:37:28.192Z,12.10
2018-09-03T08:39:56.654Z,11.03
2018-09-03T08:42:25.139Z,11.60
2018-09-03T08:44:53.617Z,10.57
2018-09-03T08:47:22.069Z,9.67
2018-09-03T08:49:50.547Z,11.07
2018-09-03T08:52:19.017Z,10.57
2018-09-03T08:54:47.474Z,10.70
2018-09-03T08:57:15.972Z,10.90
2018-09-03T08:59:44.420Z,10.10
2018-09-03T09:02:13.062Z,10.13
2018-09-03T09:04:41.563Z,10.77
2018-09-03T09:07:10.028Z,12.07
2018-09-03T09:09:38.567Z,10.63
2018-09-03T09:12:07.051Z,11.87
2018-09-03T09:14:35.525Z,11.47
2018-09-03T09:17:04.066Z,11.83
2018-09-03T09:19:32.540Z,11.07
2018-09-03T09:22:01.009Z,10.33
2018-09-03T09:24:29.574Z,9.70
2018-09-03T09:26:58.035Z,9.53
2018-09-03T09:29:26.509Z,10.07
2018-09-03T09:31:55.096Z,8.93
2018-09-03T09:34:23.699Z,9.07
2018-09-03T09:36:52.179Z,9.87
2018-09-03T09:39:20.800Z,7.57
2018-09-03T09:41:49.288Z,7.53
2018-09-03T09:44:17.724Z,6.80
2018-09-03T09:46:46.198Z,8.10
2018-09-03T09:49:14.714Z,7.50
2018-09-03T09:51:43.165Z,6.80
2018-09-03T09:54:11.699Z,9.37
2018-09-03T09:56:40.154Z,8.67
2018-09-03T09:59:08.639Z,8.00
2018-09-03T10:01:38.558Z,8.13
2018-09-03T10:04:07.567Z,8.60
2018-09-03T10:06:36.424Z,9.23
2018-09-03T10:09:06.843Z,9.03
2018-09-03T10:11:35.411Z,8.90
2018-09-03T10:14:03.997Z,8.50
2018-09-03T10:16:32.548Z,7.17
2018-09-03T10:19:00.991Z,7.63
2018-09-03T10:21:29.535Z,8.83
2018-09-03T10:23:58.003Z,9.03
2018-09-03T10:26:26.456Z,7.90
2018-09-03T10:28:55.037Z,9.10
2018-09-03T10:31:23.496Z,8.27
2018-09-03T10:33:51.949Z,8.10
2018-09-03T10:36:20.440Z,7.30
2018-09-03T10:38:48.955Z,7.17
2018-09-03T10:41:17.485Z,9.00
2018-09-03T10:43:45.934Z,8.27
2018-09-03T10:46:14.443Z,7.80
2018-09-03T10:48:42.898Z,8.40
2018-09-03T10:51:11.386Z,7.97
2018-09-03T10:53:39.846Z,7.80
2018-09-03T10:56:08.337Z,8.13
2018-09-03T10:58:36.739Z,9.10
2018-09-03T11:01:05.187Z,6.40
2018-09-03T11:03:33.630Z,7.33
2018-09-03T11:06:02.189Z,7.67
2018-09-03T11:08:30.642Z,7.00
2018-09-03T11:10:59.173Z,6.90
2018-09-03T11:13:27.624Z,7.37
2018-09-03T11:15:56.087Z,6.13
2018-09-03T11:18:25.918Z,6.90
2018-09-03T11:20:54.361Z,7.30
2018-09-03T11:23:22.801Z,7.30
2018-09-03T11:25:51.397Z,6.80
2018-09-03T11:28:19.938Z,6.80
2018-09-03T11:30:48.464Z,6.80
2018-09-03T11:33:16.983Z,6.10
2018-09-03T11:35:45.425Z,6.73
2018-09-03T11:38:13.963Z,6.10
2018-09-03T11:40:42.609Z,6.20
2018-09-03T11:43:11.104Z,7.00
2018-09-03T11:45:39.651Z,7.23
2018-09-03T11:48:08.108Z,7.10
2018-09-03T11:50:36.599Z,6.90
2018-09-03T11:53:05.142Z,6.27
2018-09-03T11:55:33.586Z,5.70
2018-09-03T11:58:02.177Z,5.87
2018-09-03T12:00:31.496Z,5.60
2018-09-03T12:03:00.302Z,6.67
2018-09-03T12:05:29.508Z,6.23
2018-09-03T12:07:58.368Z,5.37
2018-09-03T12:10:26.916Z,5.67
2018-09-03T12:12:55.368Z,5.03
2018-09-03T12:15:38.440Z,5.90
2018-09-03T12:18:06.926Z,5.50
2018-09-03T12:20:35.423Z,5.73
2018-09-03T12:23:03.863Z,5.70
2018-09-03T12:25:32.324Z,5.30
2018-09-03T12:28:00.755Z,5.20
2018-09-03T12:30:29.255Z,5.10
2018-09-03T12:32:57.724Z,5.63
2018-09-03T12:35:26.194Z,4.93
2018-09-03T12:37:54.676Z,5.80
2018-09-03T12:40:23.172Z,4.90
2018-09-03T12:42:51.688Z,4.97
2018-09-03T12:45:24.327Z,5.00
2018-09-03T12:47:52.827Z,4.93
2018-09-03T12:50:21.307Z,4.73
2018-09-03T12:52:49.845Z,5.40
2018-09-03T12:55:18.298Z,5.20
2018-09-03T12:57:46.760Z,4.87
2018-09-03T13:00:20.261Z,5.00
2018-09-03T13:02:49.177Z,5.23
2018-09-03T13:05:18.488Z,3.67
2018-09-03T13:07:46.961Z,3.57
2018-09-03T13:10:15.430Z,3.90
2018-09-03T13:12:43.998Z,3.67
2018-09-03T13:15:12.457Z,4.30
2018-09-03T13:17:40.979Z,4.40
2018-09-03T13:20:09.451Z,3.87
2018-09-03T13:22:37.973Z,5.07
2018-09-03T13:25:06.539Z,4.90
2018-09-03T13:27:35.021Z,5.10
2018-09-03T13:30:03.485Z,5.57
2018-09-03T13:32:31.923Z,4.07
2018-09-03T13:35:00.386Z,3.90
2018-09-03T13:37:29.118Z,4.87
2018-09-03T13:39:57.707Z,4.10
2018-09-03T13:42:26.195Z,3.83
2018-09-03T13:44:54.847Z,4.50
2018-09-03T13:47:23.910Z,4.23
2018-09-03T13:49:52.450Z,4.23
2018-09-03T13:52:21.803Z,4.83
2018-09-03T13:54:50.281Z,4.33
2018-09-03T13:57:18.762Z,3.30
2018-09-03T13:59:47.265Z,4.23
2018-09-03T14:02:15.818Z,3.70
2018-09-03T14:04:44.426Z,3.60
2018-09-03T14:07:12.967Z,4.33
2018-09-03T14:09:41.519Z,4.00
2018-09-03T14:12:10.380Z,3.70
2018-09-03T14:14:38.967Z,3.97
2018-09-03T14:17:07.731Z,4.23
2018-09-03T14:19:36.175Z,4.40
2018-09-03T14:22:04.687Z,4.07
2018-09-03T14:24:33.151Z,4.40
2018-09-03T14:27:01.729Z,4.37
2018-09-03T14:29:30.244Z,5.13
2018-09-03T14:31:58.705Z,4.30
2018-09-03T14:34:27.261Z,4.30
2018-09-03T14:36:55.768Z,4.17
2018-09-03T14:39:24.213Z,4.70
2018-09-03T14:41:52.747Z,4.93
2018-09-03T14:44:21.339Z,4.57
2018-09-03T14:46:49.812Z,4.80
2018-09-03T14:49:18.366Z,4.53
2018-09-03T14:51:46.827Z,5.23
2018-09-03T14:54:15.302Z,4.07
2018-09-03T14:56:43.811Z,4.57
2018-09-03T14:59:12.258Z,3.80
2018-09-03T15:01:40.753Z,4.10
2018-09-03T15:04:09.322Z,4.40
2018-09-03T15:06:37.724Z,4.30
2018-09-03T15:09:08.245Z,4.00
2018-09-03T15:11:36.772Z,4.30
2018-09-03T15:14:05.915Z,4.20
2018-09-03T15:16:35.009Z,4.53
2018-09-03T15:19:05.561Z,4.20
2018-09-03T15:21:34.971Z,3.87
2018-09-03T15:24:04.090Z,4.37
2018-09-03T15:26:32.650Z,4.30
2018-09-03T15:29:01.052Z,3.87
2018-09-03T15:31:29.706Z,4.07
2018-09-03T15:33:58.179Z,4.63
2018-09-03T15:36:27.054Z,4.73
2018-09-03T15:38:55.400Z,4.47
2018-09-03T15:41:23.859Z,4.60
2018-09-03T15:43:52.388Z,4.40
2018-09-03T15:46:20.842Z,4.40
2018-09-03T15:48:49.477Z,4.60
2018-09-03T15:51:17.955Z,3.70
2018-09-03T15:53:46.479Z,3.70
2018-09-03T15:56:14.938Z,4.50
2018-09-03T15:58:43.562Z,4.77
2018-09-03T16:01:12.036Z,5.00
2018-09-03T16:03:40.487Z,4.97
2018-09-03T16:06:08.988Z,4.80
2018-09-03T16:08:37.466Z,4.70
2018-09-03T16:11:06.140Z,5.30
2018-09-03T16:13:34.675Z,4.70
2018-09-03T16:16:03.260Z,5.00
2018-09-03T16:18:31.929Z,5.10
2018-09-03T16:21:00.458Z,5.13
2018-09-03T16:23:28.901Z,5.70
2018-09-03T16:25:57.436Z,4.80
2018-09-03T16:28:25.895Z,5.83
2018-09-03T16:30:54.344Z,5.47
2018-09-03T16:33:22.925Z,4.87
2018-09-03T16:35:51.454Z,5.67
2018-09-03T16:38:19.923Z,5.60
2018-09-03T16:40:48.411Z,4.50
2018-09-03T16:43:16.896Z,5.27
2018-09-03T16:45:45.709Z,4.90
2018-09-03T16:48:14.210Z,5.63
2018-09-03T16:50:42.788Z,4.70
2018-09-03T16:53:11.286Z,4.90
2018-09-03T16:55:39.726Z,4.63
2018-09-03T16:58:08.291Z,4.60
2018-09-03T17:00:36.778Z,5.20
2018-09-03T17:03:05.268Z,5.07
2018-09-03T17:05:33.860Z,4.63
2018-09-03T17:08:02.545Z,5.03
2018-09-03T17:10:30.987Z,5.33
2018-09-03T17:12:59.629Z,5.20
2018-09-03T17:15:28.218Z,4.70
2018-09-03T17:17:56.793Z,5.27
2018-09-03T17:20:25.321Z,5.60
2018-09-03T17:22:53.712Z,5.33
2018-09-03T17:25:22.260Z,6.47
2018-09-03T17:27:50.743Z,5.63
2018-09-03T17:30:19.453Z,5.90
2018-09-03T17:32:48.216Z,5.90
2018-09-03T17:35:16.805Z,5.10
2018-09-03T17:37:45.319Z,5.90
2018-09-03T17:40:13.816Z,5.77
2018-09-03T17:42:42.340Z,6.00
2018-09-03T17:45:11.083Z,6.67
2018-09-03T17:47:40.486Z,6.83
2018-09-03T17:50:09.452Z,6.30
2018-09-03T17:52:37.912Z,5.77
2018-09-03T17:55:07.822Z,6.13
2018-09-03T17:57:36.351Z,6.30
2018-09-03T18:00:05.139Z,5.70
2018-09-03T18:02:33.589Z,5.60
2018-09-03T18:05:02.184Z,5.33
2018-09-03T18:07:30.736Z,6.53
2018-09-03T18:09:59.251Z,6.10
2018-09-03T18:12:27.742Z,6.10
2018-09-03T18:14:56.236Z,6.43
2018-09-03T18:17:24.780Z,7.00
2018-09-03T18:19:53.277Z,5.60
2018-09-03T18:22:21.760Z,6.13
2018-09-03T18:24:50.342Z,6.03
2018-09-03T18:27:18.983Z,8.20
2018-09-03T18:29:47.495Z,7.00
2018-09-03T18:32:15.951Z,7.57
2018-09-03T18:34:44.657Z,6.27
2018-09-03T18:37:13.462Z,6.37
2018-09-03T18:39:42.032Z,6.87
2018-09-03T18:42:10.513Z,6.27
2018-09-03T18:44:39.098Z,6.13
2018-09-03T18:47:07.786Z,6.20
2018-09-03T18:49:36.393Z,7.40
2018-09-03T18:52:05.295Z,6.50
2018-09-03T18:54:34.118Z,6.70
2018-09-03T18:57:03.319Z,7.37
2018-09-03T18:59:31.927Z,7.07
2018-09-03T19:02:01.535Z,6.80
2018-09-03T19:04:30.613Z,6.80
2018-09-03T19:06:59.705Z,7.40
2018-09-03T19:09:28.700Z,6.23
2018-09-03T19:11:57.694Z,7.10
2018-09-03T19:14:26.587Z,6.83
2018-09-03T19:16:55.477Z,7.40
2018-09-03T19:19:24.575Z,7.67
2018-09-03T19:21:53.579Z,6.97
2018-09-03T19:24:22.199Z,6.97
2018-09-03T19:26:50.839Z,6.20
2018-09-03T19:29:19.513Z,8.50
2018-09-03T19:31:47.979Z,8.03
2018-09-03T19:34:16.586Z,7.07
2018-09-03T19:36:45.597Z,6.70
2018-09-03T19:39:14.146Z,7.87
2018-09-03T19:41:42.660Z,6.93
2018-09-03T19:44:11.208Z,7.27
2018-09-03T19:46:39.674Z,7.00
2018-09-03T19:49:08.788Z,7.70
2018-09-03T19:51:37.424Z,6.90
2018-09-03T19:54:06.142Z,6.40
2018-09-03T19:56:34.752Z,6.60
2018-09-03T19:59:03.279Z,8.13
2018-09-03T20:01:31.962Z,8.00
2018-09-03T20:04:00.474Z,8.33
2018-09-03T20:06:29.083Z,7.27
2018-09-03T20:08:57.625Z,6.17
2018-09-03T20:11:26.277Z,7.57
2018-09-03T20:13:54.867Z,8.80
2018-09-03T20:16:23.341Z,9.20
2018-09-03T20:18:52.103Z,9.77
2018-09-03T20:21:20.629Z,9.33
2018-09-03T20:23:49.168Z,9.43
2018-09-03T20:26:17.682Z,8.93
2018-09-03T20:28:46.166Z,8.50
2018-09-03T20:31:14.796Z,8.13
2018-09-03T20:33:43.242Z,8.90
2018-09-03T20:36:11.769Z,9.07
2018-09-03T20:38:40.289Z,8.50
2018-09-03T20:41:08.803Z,8.30
2018-09-03T20:43:37.303Z,8.90
2018-09-03T20:46:05.857Z,8.13
2018-09-03T20:48:34.540Z,8.60
2018-09-03T20:51:04.026Z,9.00
2018-09-03T20:53:32.526Z,10.17
2018-09-03T20:56:01.272Z,9.57
2018-09-03T20:58:29.903Z,10.07
2018-09-03T21:00:58.454Z,10.50
2018-09-03T21:03:26.921Z,9.27
2018-09-03T21:05:55.387Z,10.33
2018-09-03T21:08:24.091Z,9.60
2018-09-03T21:10:52.604Z,10.90
2018-09-03T21:13:21.095Z,9.00
2018-09-03T21:15:49.608Z,10.40
2018-09-03T21:18:18.100Z,10.27
2018-09-03T21:20:46.558Z,10.17
2018-09-03T21:23:15.100Z,10.80
2018-09-03T21:25:43.773Z,10.10
2018-09-03T21:28:12.278Z,8.93
2018-09-03T21:30:40.812Z,8.43
2018-09-03T21:33:09.311Z,10.50
2018-09-03T21:35:37.824Z,9.50
2018-09-03T21:38:06.367Z,10.10
2018-09-03T21:40:34.955Z,9.33
2018-09-03T21:43:03.518Z,10.33
2018-09-03T21:45:32.414Z,9.93
2018-09-03T21:48:01.223Z,10.10
2018-09-03T21:50:29.694Z,9.63
2018-09-03T21:52:58.175Z,8.90
2018-09-03T21:55:26.858Z,8.10
2018-09-03T21:57:55.635Z,9.90
2018-09-03T22:00:24.199Z,9.13
2018-09-03T22:02:52.830Z,10.57
2018-09-03T22:05:21.533Z,10.57
2018-09-03T22:07:50.020Z,10.40
2018-09-03T22:10:18.642Z,10.07
2018-09-03T22:12:47.137Z,8.60
2018-09-03T22:15:15.619Z,9.20
2018-09-03T22:17:44.493Z,9.30
2018-09-03T22:20:13.060Z,9.70
2018-09-03T22:22:41.607Z,10.23
2018-09-03T22:25:10.609Z,10.73
2018-09-03T22:27:39.219Z,10.20
2018-09-03T22:30:07.832Z,11.17
2018-09-03T22:32:36.339Z,9.80
2018-09-03T22:35:04.878Z,9.00
2018-09-03T22:37:33.364Z,8.60
2018-09-03T22:40:01.847Z,9.90
2018-09-03T22:42:30.332Z,10.70
2018-09-03T22:44:59.097Z,10.70
2018-09-03T22:47:27.571Z,9.97
2018-09-03T22:49:56.068Z,10.83
2018-09-03T22:52:24.540Z,10.50
2018-09-03T22:54:53.105Z,12.90
2018-09-03T22:57:21.616Z,11.03
2018-09-03T22:59:50.062Z,11.20
2018-09-03T23:02:18.599Z,11.13
2018-09-03T23:04:47.089Z,10.17
2018-09-03T23:07:15.740Z,11.23
2018-09-03T23:09:44.263Z,11.40
2018-09-03T23:12:12.799Z,10.93
2018-09-03T23:14:41.311Z,10.83
2018-09-03T23:17:09.870Z,11.70
2018-09-03T23:19:38.322Z,10.40
2018-09-03T23:22:06.815Z,10.57
2018-09-03T23:24:35.342Z,9.73
2018-09-03T23:27:03.843Z,8.73
2018-09-03T23:29:32.292Z,8.90
2018-09-03T23:32:00.779Z,9.73
2018-09-03T23:34:29.319Z,9.33
2018-09-03T23:36:57.806Z,8.87
2018-09-03T23:39:26.308Z,10.73
2018-09-03T23:41:55.067Z,9.00
2018-09-03T23:44:23.641Z,9.10
2018-09-03T23:46:52.239Z,9.57
2018-09-03T23:49:21.080Z,9.10
2018-09-03T23:51:49.513Z,8.10
2018-09-03T23:54:17.955Z,8.30
2018-09-03T23:56:46.413Z,8.43
2018-09-03T23:59:14.897Z,8.90
